createdAt,value
2022-09-14T00:01:48.812Z,60.40
2022-09-14T00:04:20.166Z,60.30
2022-09-14T00:06:49.718Z,60.40
2022-09-14T00:09:24.852Z,60.30
2022-09-14T00:11:52.825Z,60.30
2022-09-14T00:14:20.673Z,60.20
2022-09-14T00:16:48.098Z,60.30
2022-09-14T00:19:28.028Z,60.30
2022-09-14T00:21:57.762Z,60.50
2022-09-14T00:24:27.051Z,60.40
2022-09-14T00:26:54.131Z,60.40
2022-09-14T00:29:21.394Z,60.40
2022-09-14T00:31:50.956Z,61.40
2022-09-14T00:34:18.802Z,60.60
2022-09-14T00:36:49.525Z,60.60
2022-09-14T00:39:18.919Z,60.60
2022-09-14T00:41:51.329Z,60.70
2022-09-14T00:44:18.106Z,60.70
2022-09-14T00:46:49.111Z,60.70
2022-09-14T00:49:22.263Z,60.80
2022-09-14T00:52:08.915Z,60.70
2022-09-14T00:55:00.239Z,60.90
2022-09-14T00:57:33.630Z,60.70
2022-09-14T01:00:04.731Z,60.80
2022-09-14T01:02:34.627Z,61.70
2022-09-14T01:05:01.889Z,60.90
2022-09-14T01:07:38.445Z,60.90
2022-09-14T01:10:28.407Z,61.00
2022-09-14T01:13:44.849Z,61.40
2022-09-14T01:16:18.186Z,62.20
2022-09-14T01:19:11.021Z,61.10
2022-09-14T01:21:42.068Z,61.10
2022-09-14T01:24:39.577Z,61.20
2022-09-14T01:27:41.690Z,61.20
2022-09-14T01:30:21.498Z,61.50
2022-09-14T01:32:53.081Z,61.30
2022-09-14T01:35:31.616Z,61.30
2022-09-14T01:38:27.196Z,61.40
2022-09-14T01:40:56.386Z,61.50
2022-09-14T01:43:36.792Z,61.30
2022-09-14T01:46:18.546Z,61.40
2022-09-14T01:48:51.318Z,61.30
2022-09-14T01:51:28.035Z,61.30
2022-09-14T01:54:05.650Z,61.30
2022-09-14T01:56:47.283Z,61.30
2022-09-14T01:59:31.036Z,61.60
2022-09-14T02:02:14.903Z,61.40
2022-09-14T02:05:03.753Z,61.70
2022-09-14T02:07:36.209Z,61.70
2022-09-14T02:10:09.804Z,61.50
2022-09-14T02:12:36.851Z,61.50
2022-09-14T02:15:05.631Z,61.40
2022-09-14T02:17:32.514Z,61.50
2022-09-14T02:20:04.214Z,61.50
2022-09-14T02:22:31.680Z,61.60
2022-09-14T02:25:04.343Z,61.60
2022-09-14T02:27:35.758Z,61.70
2022-09-14T02:30:07.720Z,61.70
2022-09-14T02:32:58.266Z,61.80
2022-09-14T02:35:34.452Z,61.90
2022-09-14T02:38:08.846Z,61.80
2022-09-14T02:41:12.915Z,61.70
2022-09-14T02:44:21.758Z,61.70
2022-09-14T02:47:06.691Z,61.90
2022-09-14T02:49:43.871Z,61.80
2022-09-14T02:52:19.522Z,61.70
2022-09-14T02:54:54.468Z,61.90
2022-09-14T02:57:21.484Z,61.90
2022-09-14T02:59:48.341Z,61.70
2022-09-14T03:02:17.786Z,61.80
2022-09-14T03:04:49.330Z,61.90
2022-09-14T03:07:16.142Z,62.00
2022-09-14T03:09:43.093Z,61.90
2022-09-14T03:12:10.027Z,62.00
2022-09-14T03:14:39.920Z,62.00
2022-09-14T03:17:06.924Z,62.10
2022-09-14T03:19:36.078Z,62.10
2022-09-14T03:22:02.954Z,62.10
2022-09-14T03:24:32.594Z,62.10
2022-09-14T03:27:01.922Z,62.10
2022-09-14T03:29:31.048Z,62.20
2022-09-14T03:32:00.224Z,62.20
2022-09-14T03:34:31.580Z,62.20
2022-09-14T03:36:58.329Z,62.30
2022-09-14T03:39:25.177Z,62.20
2022-09-14T03:41:51.955Z,62.20
2022-09-14T03:44:19.057Z,62.20
2022-09-14T03:46:46.009Z,62.20
2022-09-14T03:49:15.283Z,62.30
2022-09-14T03:51:42.154Z,62.30
2022-09-14T03:54:13.634Z,62.40
2022-09-14T03:56:43.030Z,62.40
2022-09-14T03:59:10.237Z,62.40
2022-09-14T04:01:38.560Z,62.50
2022-09-14T04:04:08.101Z,62.60
2022-09-14T04:06:37.443Z,62.60
2022-09-14T04:09:06.714Z,62.60
2022-09-14T04:11:36.553Z,62.80
2022-09-14T04:14:05.189Z,62.80
2022-09-14T04:16:34.345Z,62.90
2022-09-14T04:19:01.283Z,63.00
2022-09-14T04:21:30.717Z,63.10
2022-09-14T04:24:14.602Z,63.30
2022-09-14T04:26:42.942Z,63.20
2022-09-14T04:29:11.376Z,63.30
2022-09-14T04:31:41.030Z,63.50
2022-09-14T04:34:11.070Z,63.60
2022-09-14T04:36:37.886Z,63.60
2022-09-14T04:39:04.802Z,63.60
2022-09-14T04:41:34.403Z,63.70
2022-09-14T04:44:01.625Z,63.90
2022-09-14T04:46:32.226Z,63.90
2022-09-14T04:48:59.197Z,63.90
2022-09-14T04:51:31.438Z,63.90
2022-09-14T04:54:00.179Z,63.90
2022-09-14T04:56:29.042Z,64.00
2022-09-14T04:58:58.895Z,64.10
2022-09-14T05:01:39.888Z,64.20
2022-09-14T05:04:08.620Z,64.30
2022-09-14T05:06:39.060Z,64.10
2022-09-14T05:09:13.067Z,64.10
2022-09-14T05:11:41.029Z,64.20
2022-09-14T05:14:12.185Z,64.20
2022-09-14T05:16:41.563Z,64.20
2022-09-14T05:19:15.222Z,64.40
2022-09-14T05:21:45.084Z,64.50
2022-09-14T05:24:15.704Z,64.50
2022-09-14T05:26:44.877Z,64.50
2022-09-14T05:29:19.281Z,64.50
2022-09-14T05:31:46.366Z,64.60
2022-09-14T05:34:13.897Z,64.60
2022-09-14T05:36:41.603Z,64.50
2022-09-14T05:39:12.139Z,65.40
2022-09-14T05:41:39.083Z,64.60
2022-09-14T05:44:08.712Z,64.60
2022-09-14T05:46:35.997Z,64.60
2022-09-14T05:49:03.800Z,64.60
2022-09-14T05:51:33.026Z,64.60
2022-09-14T05:54:00.947Z,64.70
2022-09-14T05:56:30.101Z,64.70
2022-09-14T05:58:58.155Z,64.80
2022-09-14T06:01:31.034Z,65.00
2022-09-14T06:04:04.522Z,65.10
2022-09-14T06:06:33.057Z,65.10
2022-09-14T06:09:00.693Z,65.10
2022-09-14T06:11:31.274Z,65.10
2022-09-14T06:13:59.019Z,65.20
2022-09-14T06:16:30.682Z,65.30
2022-09-14T06:19:00.763Z,65.40
2022-09-14T06:21:36.579Z,65.50
2022-09-14T06:24:04.559Z,65.60
2022-09-14T06:26:31.913Z,65.60
2022-09-14T06:28:58.759Z,65.60
2022-09-14T06:31:25.687Z,65.60
2022-09-14T06:33:53.479Z,65.70
2022-09-14T06:36:28.963Z,65.80
2022-09-14T06:38:59.638Z,65.90
2022-09-14T06:41:32.557Z,65.90
2022-09-14T06:44:05.360Z,66.00
2022-09-14T06:46:34.514Z,66.00
2022-09-14T06:49:20.788Z,66.10
2022-09-14T06:51:51.075Z,66.10
2022-09-14T06:54:21.144Z,66.10
2022-09-14T06:56:48.028Z,65.90
2022-09-14T06:59:17.355Z,65.90
2022-09-14T07:01:46.869Z,65.90
2022-09-14T07:04:16.445Z,66.00
2022-09-14T07:06:44.528Z,65.90
2022-09-14T07:09:12.255Z,65.70
2022-09-14T07:11:42.100Z,65.70
2022-09-14T07:14:12.076Z,65.60
2022-09-14T07:16:40.152Z,65.70
2022-09-14T07:19:13.668Z,65.50
2022-09-14T07:21:45.867Z,65.60
2022-09-14T07:24:14.999Z,65.50
2022-09-14T07:26:42.818Z,65.40
2022-09-14T07:29:19.949Z,65.50
2022-09-14T07:31:53.948Z,65.30
2022-09-14T07:34:21.774Z,65.40
2022-09-14T07:36:48.627Z,65.20
2022-09-14T07:39:17.523Z,65.00
2022-09-14T07:41:45.032Z,65.10
2022-09-14T07:44:19.283Z,65.30
2022-09-14T07:46:47.374Z,65.30
2022-09-14T07:49:16.317Z,65.00
2022-09-14T07:51:43.773Z,65.10
2022-09-14T07:54:13.366Z,65.40
2022-09-14T07:56:40.808Z,65.60
2022-09-14T07:59:31.255Z,65.30
2022-09-14T08:01:57.037Z,65.10
2022-09-14T08:04:26.235Z,64.50
2022-09-14T08:06:53.265Z,64.50
2022-09-14T08:09:20.194Z,64.40
2022-09-14T08:11:47.096Z,64.10
2022-09-14T08:14:16.413Z,64.10
2022-09-14T08:16:43.309Z,64.00
2022-09-14T08:19:18.321Z,63.80
2022-09-14T08:21:51.124Z,63.10
2022-09-14T08:24:21.030Z,62.50
2022-09-14T08:26:51.487Z,61.30
2022-09-14T08:29:21.804Z,60.40
2022-09-14T08:31:51.694Z,59.40
2022-09-14T08:34:21.883Z,58.50
2022-09-14T08:36:51.438Z,57.50
2022-09-14T08:39:18.928Z,56.50
2022-09-14T08:41:57.578Z,55.30
2022-09-14T08:44:30.704Z,54.10
2022-09-14T08:47:12.164Z,54.20
2022-09-14T08:50:02.935Z,54.30
2022-09-14T08:52:53.025Z,54.00
2022-09-14T08:55:49.571Z,53.60
2022-09-14T08:58:52.763Z,53.50
2022-09-14T09:01:43.736Z,53.00
2022-09-14T09:04:42.580Z,52.80
2022-09-14T09:07:22.529Z,52.80
2022-09-14T09:09:52.706Z,52.90
2022-09-14T09:12:30.237Z,53.10
2022-09-14T09:15:21.115Z,53.50
2022-09-14T09:17:54.735Z,53.60
2022-09-14T09:20:33.377Z,53.30
2022-09-14T09:23:18.504Z,53.50
2022-09-14T09:25:56.490Z,53.20
2022-09-14T09:28:26.459Z,53.40
2022-09-14T09:30:57.772Z,54.00
2022-09-14T09:33:27.969Z,53.60
2022-09-14T09:35:58.041Z,53.10
2022-09-14T09:38:28.164Z,53.30
2022-09-14T09:41:15.528Z,53.10
2022-09-14T09:44:00.893Z,53.40
2022-09-14T09:46:39.064Z,53.20
2022-09-14T09:49:35.185Z,52.90
2022-09-14T09:52:15.262Z,52.40
2022-09-14T09:54:50.434Z,52.00
2022-09-14T09:57:34.667Z,52.30
2022-09-14T10:00:14.172Z,52.20
2022-09-14T10:02:43.439Z,52.50
2022-09-14T10:05:10.621Z,52.40
2022-09-14T10:07:49.870Z,52.60
2022-09-14T10:10:42.883Z,53.30
2022-09-14T10:13:38.686Z,52.90
2022-09-14T10:16:18.690Z,53.10
2022-09-14T10:18:51.117Z,53.60
2022-09-14T10:21:20.629Z,53.50
2022-09-14T10:24:07.204Z,53.80
2022-09-14T10:26:36.363Z,53.90
2022-09-14T10:29:42.009Z,54.60
2022-09-14T10:32:33.836Z,55.30
2022-09-14T10:35:05.559Z,55.40
2022-09-14T10:37:50.571Z,55.60
2022-09-14T10:40:28.070Z,55.80
2022-09-14T10:43:10.046Z,55.30
2022-09-14T10:45:55.581Z,55.30
2022-09-14T10:48:49.843Z,55.30
2022-09-14T10:51:54.121Z,55.40
2022-09-14T10:54:34.744Z,55.40
2022-09-14T10:57:52.774Z,55.60
2022-09-14T11:00:25.306Z,55.20
2022-09-14T11:03:11.669Z,55.40
2022-09-14T11:05:47.990Z,55.80
2022-09-14T11:08:38.589Z,55.80
2022-09-14T11:11:52.974Z,56.70
2022-09-14T11:15:02.485Z,56.20
2022-09-14T11:18:06.353Z,56.10
2022-09-14T11:21:14.670Z,56.10
2022-09-14T11:23:57.619Z,56.20
2022-09-14T11:26:43.783Z,56.10
2022-09-14T11:29:31.927Z,56.20
2022-09-14T11:32:22.681Z,55.00
2022-09-14T11:35:11.858Z,55.30
2022-09-14T11:37:55.833Z,55.10
2022-09-14T11:41:00.589Z,54.90
2022-09-14T11:43:46.887Z,55.50
2022-09-14T11:46:24.901Z,55.80
2022-09-14T11:49:20.466Z,55.90
2022-09-14T11:51:55.506Z,55.90
2022-09-14T11:54:25.594Z,56.00
2022-09-14T11:56:57.564Z,56.10
2022-09-14T11:59:50.777Z,56.20
2022-09-14T12:02:26.327Z,56.30
2022-09-14T12:05:31.840Z,56.20
2022-09-14T12:08:06.070Z,56.10
2022-09-14T12:11:30.787Z,55.90
2022-09-14T12:14:35.791Z,55.40
2022-09-14T12:17:38.256Z,55.10
2022-09-14T12:20:29.468Z,55.10
2022-09-14T12:23:13.391Z,55.30
2022-09-14T12:26:10.816Z,55.40
2022-09-14T12:28:40.401Z,55.70
2022-09-14T12:31:13.077Z,55.70
2022-09-14T12:33:42.559Z,55.60
2022-09-14T12:36:32.309Z,55.80
2022-09-14T12:38:59.117Z,55.80
2022-09-14T12:41:25.888Z,56.20
2022-09-14T12:43:56.176Z,56.40
2022-09-14T12:46:23.095Z,56.50
2022-09-14T12:48:54.190Z,56.40
2022-09-14T12:51:26.983Z,56.30
2022-09-14T12:54:09.116Z,56.30
2022-09-14T12:57:07.016Z,56.10
2022-09-14T12:59:37.925Z,55.90
2022-09-14T13:03:21.442Z,55.90
2022-09-14T13:05:48.437Z,55.60
2022-09-14T13:08:23.819Z,55.80
2022-09-14T13:10:52.256Z,55.50
2022-09-14T13:13:30.771Z,55.80
2022-09-14T13:16:06.337Z,56.40
2022-09-14T13:18:36.926Z,56.50
2022-09-14T13:21:22.604Z,56.60
2022-09-14T13:23:49.890Z,56.90
2022-09-14T13:26:33.194Z,56.80
2022-09-14T13:29:04.104Z,57.10
2022-09-14T13:31:35.355Z,57.30
2022-09-14T13:34:05.645Z,57.70
2022-09-14T13:36:40.202Z,57.80
2022-09-14T13:39:22.889Z,57.80
2022-09-14T13:41:50.512Z,58.00
2022-09-14T13:44:23.639Z,58.10
2022-09-14T13:46:53.278Z,58.50
2022-09-14T13:49:21.026Z,58.60
2022-09-14T13:51:47.990Z,58.80
2022-09-14T13:54:23.937Z,59.20
2022-09-14T13:57:13.229Z,59.50
2022-09-14T14:00:14.525Z,59.70
2022-09-14T14:02:49.765Z,59.50
2022-09-14T14:05:30.519Z,60.00
2022-09-14T14:08:01.048Z,60.30
2022-09-14T14:10:46.188Z,60.50
2022-09-14T14:13:26.883Z,60.60
2022-09-14T14:15:56.423Z,60.40
2022-09-14T14:18:35.588Z,60.60
2022-09-14T14:21:30.691Z,61.20
2022-09-14T14:24:26.155Z,61.00
2022-09-14T14:26:57.132Z,60.60
2022-09-14T14:29:25.719Z,60.70
2022-09-14T14:32:00.309Z,60.70
2022-09-14T14:34:33.045Z,60.90
2022-09-14T14:37:02.409Z,61.00
2022-09-14T14:39:29.362Z,60.70
2022-09-14T14:41:58.819Z,60.70
2022-09-14T14:44:29.562Z,60.60
2022-09-14T14:46:57.130Z,60.40
2022-09-14T14:49:26.768Z,60.60
2022-09-14T14:51:56.167Z,60.00
2022-09-14T14:54:25.144Z,60.10
2022-09-14T14:56:54.455Z,59.80
2022-09-14T14:59:21.219Z,59.70
2022-09-14T15:01:49.186Z,59.90
2022-09-14T15:04:16.119Z,59.80
2022-09-14T15:06:43.055Z,59.90
2022-09-14T15:09:27.465Z,59.90
2022-09-14T15:11:56.933Z,60.10
2022-09-14T15:14:27.678Z,60.00
2022-09-14T15:17:00.307Z,60.40
2022-09-14T15:19:27.624Z,60.60
2022-09-14T15:22:00.955Z,60.50
2022-09-14T15:24:29.504Z,60.50
2022-09-14T15:26:56.620Z,60.60
2022-09-14T15:29:23.473Z,60.50
2022-09-14T15:31:52.746Z,60.70
2022-09-14T15:34:19.661Z,60.90
2022-09-14T15:36:51.938Z,60.90
2022-09-14T15:39:28.521Z,60.70
2022-09-14T15:41:56.785Z,60.60
2022-09-14T15:44:24.174Z,60.40
2022-09-14T15:46:58.066Z,60.50
2022-09-14T15:49:26.108Z,60.50
2022-09-14T15:51:55.898Z,60.60
2022-09-14T15:54:26.501Z,60.70
2022-09-14T15:57:03.472Z,60.80
2022-09-14T15:59:30.685Z,60.70
2022-09-14T16:01:59.791Z,60.60
2022-09-14T16:04:27.577Z,60.40
2022-09-14T16:06:54.542Z,60.60
2022-09-14T16:09:22.466Z,60.90
2022-09-14T16:11:49.894Z,61.10
2022-09-14T16:14:16.880Z,61.00
2022-09-14T16:16:46.247Z,61.10
2022-09-14T16:19:16.524Z,61.10
2022-09-14T16:21:43.879Z,61.10
2022-09-14T16:24:15.540Z,61.20
2022-09-14T16:26:45.618Z,61.60
2022-09-14T16:29:20.137Z,62.50
2022-09-14T16:31:52.090Z,61.60
2022-09-14T16:34:29.930Z,61.60
2022-09-14T16:36:59.469Z,61.70
2022-09-14T16:39:29.751Z,61.60
2022-09-14T16:42:00.018Z,61.60
2022-09-14T16:44:30.132Z,61.60
2022-09-14T16:46:58.615Z,61.60
2022-09-14T16:49:29.162Z,61.60
2022-09-14T16:52:00.799Z,61.70
2022-09-14T16:54:29.760Z,61.80
2022-09-14T16:57:01.454Z,61.80
2022-09-14T16:59:28.538Z,61.70
2022-09-14T17:01:57.876Z,61.80
2022-09-14T17:04:25.428Z,61.90
2022-09-14T17:06:56.752Z,61.80
2022-09-14T17:09:27.908Z,62.00
2022-09-14T17:11:56.787Z,62.10
2022-09-14T17:14:31.838Z,62.10
2022-09-14T17:17:02.167Z,62.10
2022-09-14T17:19:29.310Z,62.20
2022-09-14T17:21:56.305Z,62.20
2022-09-14T17:24:23.295Z,62.20
2022-09-14T17:26:52.567Z,62.20
2022-09-14T17:29:22.421Z,62.30
2022-09-14T17:31:51.807Z,62.50
2022-09-14T17:37:34.700Z,62.50
2022-09-14T17:42:45.963Z,62.60
2022-09-14T17:45:21.709Z,62.70
2022-09-14T17:47:50.628Z,62.70
2022-09-14T17:50:29.632Z,62.80
2022-09-14T17:53:05.596Z,62.90
2022-09-14T17:55:33.269Z,62.90
2022-09-14T17:59:17.153Z,63.00
2022-09-14T18:01:26.250Z,63.10
2022-09-14T18:04:00.982Z,63.00
2022-09-14T18:06:40.680Z,63.00
2022-09-14T18:11:58.313Z,63.00
2022-09-14T18:14:28.502Z,63.00
2022-09-14T18:16:59.865Z,63.00
2022-09-14T18:19:27.059Z,63.00
2022-09-14T18:22:19.416Z,62.90
2022-09-14T18:25:13.838Z,63.00
2022-09-14T18:27:50.017Z,63.10
2022-09-14T18:30:25.600Z,63.20
2022-09-14T18:32:59.713Z,63.30
2022-09-14T18:35:49.663Z,63.10
2022-09-14T18:38:26.199Z,63.10
2022-09-14T18:41:23.921Z,63.00
2022-09-14T18:44:20.811Z,64.00
2022-09-14T18:46:53.759Z,63.40
2022-09-14T18:49:23.814Z,63.20
2022-09-14T18:51:51.040Z,63.20
2022-09-14T18:54:33.754Z,63.30
2022-09-14T18:57:24.003Z,63.40
2022-09-14T18:59:53.967Z,63.30
2022-09-14T19:02:29.839Z,63.40
2022-09-14T19:04:59.925Z,63.60
2022-09-14T19:07:42.206Z,63.40
2022-09-14T19:10:47.647Z,63.60
2022-09-14T19:13:17.672Z,63.50
2022-09-14T19:15:44.712Z,63.60
2022-09-14T19:18:26.097Z,63.60
2022-09-14T19:21:06.853Z,63.70
2022-09-14T19:23:43.167Z,63.90
2022-09-14T19:26:26.402Z,63.60
2022-09-14T19:28:56.336Z,63.80
2022-09-14T19:31:36.715Z,63.70
2022-09-14T19:34:13.658Z,63.70
2022-09-14T19:36:44.234Z,63.90
2022-09-14T19:39:14.600Z,63.90
2022-09-14T19:41:41.594Z,64.00
2022-09-14T19:44:10.204Z,64.00
2022-09-14T19:46:54.029Z,64.00
2022-09-14T19:49:25.903Z,64.10
2022-09-14T19:51:56.594Z,64.00
2022-09-14T19:54:25.779Z,64.00
2022-09-14T19:56:54.764Z,64.00
2022-09-14T19:59:21.780Z,64.00
2022-09-14T20:01:49.474Z,64.00
2022-09-14T20:04:18.241Z,63.90
2022-09-14T20:06:47.306Z,63.90
2022-09-14T20:09:27.070Z,63.90
2022-09-14T20:11:54.399Z,63.90
2022-09-14T20:14:26.721Z,63.90
2022-09-14T20:16:58.544Z,63.80
2022-09-14T20:19:28.265Z,63.90
2022-09-14T20:21:57.998Z,63.90
2022-09-14T20:24:27.893Z,64.00
2022-09-14T20:27:00.389Z,64.00
2022-09-14T20:29:30.698Z,64.00
2022-09-14T20:31:58.728Z,64.10
2022-09-14T20:34:26.592Z,64.10
2022-09-14T20:36:56.670Z,64.20
2022-09-14T20:39:24.521Z,64.30
2022-09-14T20:41:51.582Z,64.30
2022-09-14T20:44:23.090Z,64.40
2022-09-14T20:46:52.526Z,64.40
2022-09-14T20:49:22.443Z,64.50
2022-09-14T20:51:52.556Z,64.40
2022-09-14T20:54:20.016Z,64.40
2022-09-14T20:56:46.976Z,64.50
2022-09-14T20:59:19.393Z,64.50
2022-09-14T21:01:49.352Z,64.50
2022-09-14T21:04:21.059Z,64.50
2022-09-14T21:06:54.334Z,64.50
2022-09-14T21:09:24.459Z,64.50
2022-09-14T21:11:54.220Z,64.60
2022-09-14T21:14:22.026Z,64.60
2022-09-14T21:16:56.544Z,64.60
2022-09-14T21:19:27.427Z,64.60
2022-09-14T21:21:54.794Z,64.70
2022-09-14T21:24:23.037Z,64.70
2022-09-14T21:26:50.420Z,64.70
2022-09-14T21:29:23.511Z,64.70
2022-09-14T21:31:51.634Z,64.80
2022-09-14T21:34:21.091Z,64.80
2022-09-14T21:36:51.181Z,64.80
2022-09-14T21:39:24.742Z,64.90
2022-09-14T21:41:58.869Z,65.00
2022-09-14T21:44:37.315Z,65.10
2022-09-14T21:47:04.946Z,65.20
2022-09-14T21:49:31.922Z,65.10
2022-09-14T21:51:58.794Z,65.30
2022-09-14T21:54:25.793Z,65.30
2022-09-14T21:56:52.912Z,65.30
2022-09-14T21:59:21.997Z,65.30
2022-09-14T22:01:51.943Z,65.30
2022-09-14T22:04:22.174Z,65.40
2022-09-14T22:06:52.093Z,65.30
2022-09-14T22:09:26.809Z,66.10
2022-09-14T22:11:56.243Z,65.20
2022-09-14T22:14:27.259Z,65.20
2022-09-14T22:16:54.361Z,65.10
2022-09-14T22:19:27.401Z,65.10
2022-09-14T22:21:55.080Z,65.10
2022-09-14T22:24:32.405Z,65.10
2022-09-14T22:27:02.020Z,65.00
2022-09-14T22:29:31.526Z,65.10
2022-09-14T22:32:00.113Z,65.10
2022-09-14T22:34:28.394Z,65.20
2022-09-14T22:36:55.356Z,65.20
2022-09-14T22:39:24.721Z,65.30
2022-09-14T22:41:51.614Z,65.30
2022-09-14T22:44:23.489Z,65.30
2022-09-14T22:46:53.363Z,65.20
2022-09-14T22:49:23.199Z,65.20
2022-09-14T22:51:52.344Z,66.00
2022-09-14T22:54:21.675Z,65.20
2022-09-14T22:56:48.466Z,65.20
2022-09-14T22:59:17.544Z,65.10
2022-09-14T23:01:46.920Z,65.10
2022-09-14T23:04:16.831Z,65.90
2022-09-14T23:06:47.211Z,65.10
2022-09-14T23:09:22.235Z,65.10
2022-09-14T23:11:49.459Z,65.10
2022-09-14T23:14:17.021Z,65.10
2022-09-14T23:16:47.109Z,65.10
2022-09-14T23:19:19.666Z,65.10
2022-09-14T23:21:47.232Z,65.20
2022-09-14T23:24:14.245Z,65.60
2022-09-14T23:26:41.534Z,65.20
2022-09-14T23:29:16.291Z,65.10
2022-09-14T23:31:45.854Z,65.00
2022-09-14T23:34:12.820Z,65.10
2022-09-14T23:36:41.790Z,65.00
2022-09-14T23:39:11.113Z,65.00
2022-09-14T23:41:39.120Z,65.00
2022-09-14T23:44:06.126Z,64.90
2022-09-14T23:46:33.056Z,64.80
2022-09-14T23:48:59.910Z,64.70
2022-09-14T23:51:27.209Z,64.70
2022-09-14T23:53:54.110Z,64.60
2022-09-14T23:56:21.202Z,64.60
2022-09-14T23:58:48.215Z,64.50
